Congonhas Airport

SBSP · São Paulo, Brasilien

METAR-Geschichte SBSP · Flughafen São Paulo-Congonhas

Unten siehst du die METARs der letzten paar Tage. Wähle ein Jahr, um ältere METARs ab dem Jahr 2007 zu durchsuchen.

24. Februar 2024

Uhrzeit Code Wetter Temp. Sichtweite Wolkendecke Wind METAR/SPECI
21:00
V
23 °C 10 km+ - 090° 090° 2 kt METAR SBSP 250000Z 09002KT 9999 FEW019 23/20 Q1023
20:00
V
23 °C 10 km+ - 080° 080° 3 kt METAR SBSP 242300Z 08003KT 9999 FEW019 23/20 Q1022
19:00
V
23 °C 10 km+ - 220° 220° 3 kt METAR SBSP 242200Z 22003KT 9999 FEW020 23/19 Q1021
18:00
V
23 °C 10 km+ - 220° 220° 5 kt METAR SBSP 242100Z 22005KT 9999 VCSH FEW020 23/20 Q1021
17:00
V
23 °C 10 km+ 7.300 ft 200° 200° 4 kt METAR SBSP 242000Z 20004KT 9999 -RA VCTS FEW015 FEW040CB BKN073 23/21 Q1022
16:00
V
23 °C 10 km+ 8.300 ft 130° 130° 2 kt METAR SBSP 241900Z 13002KT 9999 -RA SCT017 BKN083 23/21 Q1021 RETSRA
15:10
M
21 °C 10 km+ 1.700 ft 320° 320° 2 kt METAR SBSP 241810Z 32002KT 9999 -RA VCTS BKN017 FEW040CB BKN070 21/20 Q1022 RETSRA
15:00
I
21 °C 3 km 600 ft 050° 050° 8 kt METAR SBSP 241800Z 05008KT 3000 TSRA BR BKN006 BKN017 FEW040CB 21/20 Q1022
14:38
M
22 °C 7 km 1.700 ft 160° 160° 11 kt METAR SBSP 241738Z 16011KT 7000 TSRA BKN017 BKN021 FEW040CB 22/20 Q1022
14:21
M
24 °C 10 km+ 1.700 ft 160° 160° 12 kt METAR SBSP 241721Z 16012KT 9999 4500S -TSRA BKN017 BKN021 FEW040CB 24/21 Q1022
14:00
V
25 °C 10 km+ 5.000 ft 050° 050° 8 kt METAR SBSP 241700Z 05008KT 9999 FEW040 BKN050 BKN100 25/21 Q1020 RETSRA
13:34
M
25 °C 10 km+ 2.300 ft 010° 010° 12 kt METAR SBSP 241634Z 01012KT 9999 4700W TSRA BKN023 FEW050CB 25/21 Q1021
13:23
M
25 °C 10 km+ 2.300 ft 010° 010° 15 kt METAR SBSP 241623Z 01015KT 9999 4900NW -TSRA BKN023 FEW050CB 25/22 Q1020
13:00
V
30 °C 10 km+ 3.600 ft 280° 280° 6 kt METAR SBSP 241600Z 28006KT 210V350 9999 VCSH VCTS BKN036 FEW050CB 30/20 Q1021
12:00
V
29 °C 10 km+ - 330° 330° 9 kt METAR SBSP 241500Z 33009KT 240V010 9999 FEW046 SCT100 29/20 Q1022
11:00
V
28 °C 10 km+ - 300° 300° 9 kt METAR SBSP 241400Z 30009KT 270V340 9999 FEW046 SCT100 28/20 Q1022
10:00
V
27 °C 10 km+ - 330° 330° 8 kt METAR SBSP 241300Z 33008KT CAVOK 27/21 Q1023
09:00
V
25 °C 10 km+ - 330° 330° 8 kt METAR SBSP 241200Z 33008KT 280V350 CAVOK 25/21 Q1022
08:00
V
24 °C 10 km+ - 310° 310° 4 kt METAR SBSP 241100Z 31004KT 280V350 CAVOK 24/21 Q1022
07:00
V
23 °C 10 km+ - 040° 040° 2 kt METAR SBSP 241000Z 04002KT CAVOK 23/20 Q1021
06:00
V
23 °C 10 km+ - 020° 020° 3 kt METAR SBSP 240900Z 02003KT CAVOK 23/20 Q1021
05:00
V
22 °C 10 km+ - 340° 340° 4 kt METAR SBSP 240800Z AUTO 34004KT 9999 NCD 22/20 Q1019
04:00
V
22 °C 10 km+ - 330° 330° 5 kt METAR SBSP 240700Z AUTO 33005KT 9999 NCD 22/20 Q1019
02:00
V
23 °C 10 km+ - Var Var 1 kt METAR SBSP 240500Z AUTO VRB01KT 9999 // NCD 23/20 Q1019
01:00
V
23 °C 10 km+ - Var Var 1 kt METAR SBSP 240400Z AUTO VRB01KT 9999 // NCD 23/20 Q1019

23. Februar 2024

Uhrzeit Code Wetter Temp. Sichtweite Wolkendecke Wind METAR/SPECI
23:10
V
23 °C 10 km+ - 030° 030° 6 kt METAR SBSP 240210Z 03006KT 9999 NSC 23/20 Q1020
23:00
V
23 °C 10 km+ - 030° 030° 6 kt METAR SBSP 240200Z 03006KT CAVOK 23/20 Q1020
22:00
V
23 °C 10 km+ - 060° 060° 4 kt METAR SBSP 240100Z 06004KT 010V100 9999 FEW046 23/21 Q1021
21:00
V
23 °C 10 km+ - 160° 160° 5 kt METAR SBSP 240000Z 16005KT 9999 SCT018 SCT046 23/21 Q1021
20:00
V
23 °C 10 km+ 3.300 ft 040° 040° 3 kt METAR SBSP 232300Z 04003KT 9999 VCTS FEW011 BKN033 FEW050CB 23/21 Q1020
19:00
V
24 °C 10 km+ 3.300 ft 100° 100° 4 kt METAR SBSP 232200Z 10004KT 020V090 9999 VCTS SCT026 BKN033 FEW050CB 24/21 Q1019
18:00
M
24 °C 10 km+ 2.100 ft 120° 120° 8 kt METAR SBSP 232100Z 12008KT 9999 SCT017 BKN021 24/21 Q1017 RETSRA
17:13
M
22 °C 10 km+ 2.100 ft 140° 140° 8 kt METAR SBSP 232013Z 14008KT 090V190 9999 -TSRA SCT017 BKN021 FEW050CB 22/20 Q1016 RERA
17:00
M
26 °C 7 km 2.100 ft 120° 120° 14 kt METAR SBSP 232000Z 12014KT 7000 TSRA SCT017 BKN021 FEW050CB 26/20 Q1017
16:42
V
26 °C 10 km+ 4.600 ft 150° 150° 14 kt METAR SBSP 231942Z 15014KT 9999 TS VCSH BKN046 FEW050CB 26/22 Q1016
16:00
V
28 °C 10 km+ 4.600 ft 150° 150° 12 kt METAR SBSP 231900Z 15012KT 9999 BKN046 28/23 Q1016
15:00
V
31 °C 10 km+ 4.600 ft 320° 320° 5 kt METAR SBSP 231800Z 32005KT 260V050 9999 BKN046 31/19 Q1016
14:00
V
31 °C 10 km+ 4.000 ft 270° 270° 6 kt METAR SBSP 231700Z 27006KT 210V310 9999 BKN040 31/18 Q1017
13:00
V
31 °C 10 km+ - 310° 310° 6 kt METAR SBSP 231600Z 31006KT 220V020 9999 SCT040 31/19 Q1017
12:00
V
30 °C 10 km+ 3.600 ft 340° 340° 8 kt METAR SBSP 231500Z 34008KT 240V020 9999 BKN036 30/20 Q1018
11:00
M
29 °C 10 km+ 3.000 ft 350° 350° 8 kt METAR SBSP 231400Z 35008KT 290V030 9999 BKN030 29/20 Q1018
10:00
V
28 °C 10 km+ - 340° 340° 9 kt METAR SBSP 231300Z 34009KT 280V040 9999 FEW030 28/20 Q1018
09:00
V
26 °C 10 km+ - 010° 010° 6 kt METAR SBSP 231200Z 01006KT 330V050 CAVOK 26/19 Q1018
08:00
V
25 °C 10 km+ - Var Var 3 kt METAR SBSP 231100Z VRB03KT CAVOK 25/20 Q1018
07:00
V
23 °C 10 km+ - 040° 040° 3 kt METAR SBSP 231000Z 04003KT 010V070 CAVOK 23/19 Q1017
06:00
V
22 °C 10 km+ - 030° 030° 4 kt METAR SBSP 230900Z 03004KT CAVOK 22/19 Q1017
05:00
V
22 °C 10 km+ - 050° 050° 5 kt METAR SBSP 230800Z AUTO 05005KT 9999 NCD 22/19 Q1015
04:00
V
23 °C 10 km+ - 040° 040° 6 kt METAR SBSP 230700Z AUTO 04006KT 9999 NCD 23/19 Q1015
03:00
V
23 °C 10 km+ - 050° 050° 5 kt METAR SBSP 230600Z AUTO 05005KT 9999 NCD 23/19 Q1015
02:00
V
23 °C 10 km+ - 320° 320° 6 kt METAR SBSP 230500Z AUTO 32006KT 9999 NCD 23/19 Q1015
01:00
V
22 °C 10 km+ - 020° 020° 3 kt METAR SBSP 230400Z AUTO 02003KT 9999 NCD 22/19 Q1015
00:00
V
23 °C 10 km+ - 060° 060° 4 kt METAR SBSP 230300Z AUTO 06004KT 020V080 9999 NCD 23/19 Q1015

22. Februar 2024

Uhrzeit Code Wetter Temp. Sichtweite Wolkendecke Wind METAR/SPECI
23:06
V
23 °C 10 km+ - 060° 060° 5 kt METAR SBSP 230206Z 06005KT 030V100 9999 FEW010 23/20 Q1016
23:00
V
23 °C 10 km+ - 070° 070° 4 kt METAR SBSP 230200Z 07004KT 040V130 9999 FEW010 SCT100 23/20 Q1016
22:00
M
22 °C 8 km 1.100 ft 130° 130° 5 kt METAR SBSP 230100Z 13005KT 050V150 8000 FEW007 BKN011 22/21 Q1016

21. Februar 2024

Uhrzeit Code Wetter Temp. Sichtweite Wolkendecke Wind METAR/SPECI
21:00
I
22 °C 4 km 1.300 ft 140° 140° 6 kt METAR SBSP 230000Z 14006KT 110V170 4000 BR SCT007 OVC013 22/21 Q1016

22. Februar 2024

Uhrzeit Code Wetter Temp. Sichtweite Wolkendecke Wind METAR/SPECI
20:00
I
22 °C 5 km 800 ft 120° 120° 6 kt METAR SBSP 222300Z 12006KT 5000 BR SCT005 OVC008 22/20 Q1015
19:00
I
22 °C 5 km 800 ft 140° 140° 9 kt METAR SBSP 222200Z 14009KT 5000 BR FEW005 OVC008 22/20 Q1014
18:00
M
22 °C 8 km 1.100 ft 150° 150° 12 kt METAR SBSP 222100Z 15012KT 8000 FEW005 OVC011 22/21 Q1013
17:00
M
24 °C 10 km+ 1.100 ft 150° 150° 12 kt METAR SBSP 222000Z 15012KT 9999 SCT009 BKN011 24/21 Q1012
16:00
V
25 °C 10 km+ - 160° 160° 13 kt METAR SBSP 221900Z 16013KT 9999 SCT013 SCT030 FEW046TCU 25/21 Q1012
15:00
V
30 °C 10 km+ - 290° 290° 8 kt METAR SBSP 221800Z 29008KT 200V340 9999 SCT036 FEW050TCU 30/16 Q1012
14:00
V
29 °C 10 km+ - 310° 310° 6 kt METAR SBSP 221700Z 31006KT 240V020 9999 SCT036 29/18 Q1013
13:00
V
28 °C 10 km+ 3.600 ft 290° 290° 6 kt METAR SBSP 221600Z 29006KT 200V360 9999 BKN036 28/19 Q1013
12:00
V
28 °C 10 km+ 3.600 ft 020° 020° 7 kt METAR SBSP 221500Z 02007KT 330V060 9999 BKN036 28/18 Q1014
11:00
M
27 °C 10 km+ 2.600 ft 020° 020° 7 kt METAR SBSP 221400Z 02007KT 330V060 9999 BKN026 27/19 Q1015
10:00
V
25 °C 10 km+ - 020° 020° 5 kt METAR SBSP 221300Z 02005KT 320V070 9999 SCT019 25/19 Q1015
09:00
V
24 °C 10 km+ - Var Var 4 kt METAR SBSP 221200Z VRB04KT 9999 SCT009 24/19 Q1014
08:40
V
23 °C 10 km+ - 070° 070° 4 kt METAR SBSP 221140Z 07004KT 9999 SCT009 23/19 Q1014
08:00
I
21 °C 10 km+ 900 ft 080° 080° 4 kt METAR SBSP 221100Z 08004KT 9999 SCT007 BKN009 21/19 Q1014
07:00
I
21 °C 9 km 800 ft 070° 070° 3 kt METAR SBSP 221000Z 07003KT 9000 SCT007 BKN008 21/19 Q1013
06:00
I
20 °C 9 km 700 ft 060° 060° 6 kt METAR SBSP 220900Z 06006KT 020V110 9000 SCT005 BKN007 20/19 Q1013
05:37
I
20 °C 10 km+ 700 ft 070° 070° 4 kt METAR SBSP 220837Z AUTO 07004KT 030V170 9999 FEW005 BKN007 20/19 Q1012
05:00
V
20 °C 10 km+ - 070° 070° 4 kt METAR SBSP 220800Z AUTO 07004KT 030V120 9999 FEW005 20/19 Q1012
04:00
V
21 °C 10 km+ - 050° 050° 5 kt METAR SBSP 220700Z AUTO 05005KT 010V120 9999 NCD 21/19 Q1011
03:00
V
21 °C 10 km+ - 060° 060° 6 kt METAR SBSP 220600Z AUTO 06006KT 030V090 9999 NCD 21/19 Q1011